createdAt,value
2022-08-08T00:00:54.154Z,99.90
2022-08-08T00:03:32.257Z,99.90
2022-08-08T00:06:28.644Z,99.90
2022-08-08T00:09:17.128Z,99.90
2022-08-08T00:12:10.837Z,99.90
2022-08-08T00:15:00.577Z,99.90
2022-08-08T00:18:03.553Z,99.90
2022-08-08T00:20:44.826Z,99.90
2022-08-08T00:23:42.542Z,99.90
2022-08-08T00:26:26.488Z,99.90
2022-08-08T00:29:44.718Z,99.90
2022-08-08T00:32:35.387Z,99.90
2022-08-08T00:35:21.318Z,99.90
2022-08-08T00:38:44.251Z,99.90
2022-08-08T00:41:54.450Z,99.90
2022-08-08T00:44:56.645Z,99.90
2022-08-08T00:48:01.437Z,99.90
2022-08-08T00:51:09.746Z,99.90
2022-08-08T00:54:13.265Z,99.90
2022-08-08T00:56:45.519Z,99.90
2022-08-08T01:00:08.922Z,99.90
2022-08-08T01:04:02.154Z,99.90
2022-08-08T01:06:47.549Z,99.90
2022-08-08T01:09:52.129Z,99.90
2022-08-08T01:12:45.480Z,99.90
2022-08-08T01:15:54.672Z,99.90
2022-08-08T01:19:13.989Z,99.90
2022-08-08T01:23:03.086Z,99.90
2022-08-08T01:25:57.441Z,99.90
2022-08-08T01:29:35.403Z,99.90
2022-08-08T01:32:57.974Z,99.90
2022-08-08T01:36:01.048Z,99.90
2022-08-08T01:38:55.520Z,99.90
2022-08-08T01:41:48.110Z,99.90
2022-08-08T01:44:26.876Z,99.90
2022-08-08T01:48:23.493Z,99.90
2022-08-08T01:52:29.488Z,99.90
2022-08-08T01:55:26.566Z,99.90
2022-08-08T01:58:38.187Z,99.90
2022-08-08T02:01:54.839Z,99.90
2022-08-08T02:04:43.035Z,99.90
2022-08-08T02:07:25.493Z,99.90
2022-08-08T02:10:37.349Z,99.90
2022-08-08T02:13:53.623Z,99.90
2022-08-08T02:16:33.531Z,99.90
2022-08-08T02:20:07.585Z,99.90
2022-08-08T02:22:56.863Z,99.90
2022-08-08T02:25:43.546Z,99.90
2022-08-08T02:28:42.734Z,99.90
2022-08-08T02:32:04.745Z,99.90
2022-08-08T02:35:07.636Z,99.90
2022-08-08T02:37:53.443Z,99.90
2022-08-08T02:40:49.931Z,99.90
2022-08-08T02:44:38.106Z,99.90
2022-08-08T02:46:44.025Z,99.90
2022-08-08T02:49:50.843Z,99.90
2022-08-08T02:52:54.775Z,99.90
2022-08-08T02:55:57.687Z,99.90
2022-08-08T02:59:36.909Z,99.90
2022-08-08T03:02:29.899Z,99.90
2022-08-08T03:05:18.915Z,99.90
2022-08-08T03:08:38.435Z,99.90
2022-08-08T03:12:03.130Z,99.90
2022-08-08T03:16:03.866Z,99.90
2022-08-08T03:18:13.750Z,99.90
2022-08-08T03:20:51.449Z,99.90
2022-08-08T03:23:21.257Z,99.90
2022-08-08T03:25:50.175Z,99.90
2022-08-08T03:28:41.120Z,99.90
2022-08-08T03:31:26.848Z,99.90
2022-08-08T03:34:04.902Z,99.90
2022-08-08T03:36:33.298Z,99.90
2022-08-08T03:39:15.278Z,99.90
2022-08-08T03:42:28.151Z,99.90
2022-08-08T03:44:35.409Z,99.90
2022-08-08T03:47:14.177Z,99.90
2022-08-08T03:49:57.185Z,99.90
2022-08-08T03:52:31.694Z,99.90
2022-08-08T03:55:09.544Z,99.90
2022-08-08T03:58:30.032Z,99.90
2022-08-08T04:00:27.678Z,99.90
2022-08-08T04:03:03.845Z,99.90
2022-08-08T04:05:37.469Z,99.90
2022-08-08T04:08:33.430Z,99.90
2022-08-08T04:11:11.015Z,99.90
2022-08-08T04:14:03.438Z,99.90
2022-08-08T04:16:38.858Z,99.90
2022-08-08T04:19:23.485Z,99.90
2022-08-08T04:21:51.192Z,99.90
2022-08-08T04:24:22.413Z,99.90
2022-08-08T04:26:57.227Z,99.90
2022-08-08T04:29:25.342Z,99.90
2022-08-08T04:31:59.029Z,99.90
2022-08-08T04:34:31.729Z,99.90
2022-08-08T04:36:59.254Z,99.90
2022-08-08T04:40:05.663Z,99.90
2022-08-08T04:42:15.768Z,99.90
2022-08-08T04:44:47.546Z,99.90
2022-08-08T04:47:16.592Z,99.90
2022-08-08T04:49:59.035Z,99.90
2022-08-08T04:52:33.606Z,99.90
2022-08-08T04:55:01.535Z,99.90
2022-08-08T04:57:28.904Z,99.90
2022-08-08T04:59:58.066Z,99.90
2022-08-08T05:02:28.604Z,99.90
2022-08-08T05:04:59.528Z,99.90
2022-08-08T05:07:42.150Z,99.90
2022-08-08T05:10:12.892Z,99.90
2022-08-08T05:12:43.040Z,99.90
2022-08-08T05:16:49.380Z,99.90
2022-08-08T05:18:14.383Z,99.90
2022-08-08T05:20:49.797Z,99.90
2022-08-08T05:23:17.846Z,99.90
2022-08-08T05:25:46.785Z,99.90
2022-08-08T05:28:14.941Z,99.90
2022-08-08T05:30:47.330Z,99.90
2022-08-08T05:33:16.843Z,99.90
2022-08-08T05:35:46.246Z,99.90
2022-08-08T05:38:31.691Z,99.90
2022-08-08T05:41:03.464Z,99.90
2022-08-08T05:44:02.538Z,99.90
2022-08-08T05:46:24.436Z,99.90
2022-08-08T05:48:54.435Z,99.90
2022-08-08T05:51:22.489Z,99.90
2022-08-08T05:54:24.482Z,99.90
2022-08-08T05:56:42.293Z,99.90
2022-08-08T05:59:59.975Z,99.90
2022-08-08T06:02:40.666Z,99.90
2022-08-08T06:05:24.356Z,99.90
2022-08-08T06:08:10.384Z,99.90
2022-08-08T06:10:52.672Z,99.90
2022-08-08T06:13:22.633Z,99.90
2022-08-08T06:15:54.518Z,99.90
2022-08-08T06:18:25.946Z,99.90
2022-08-08T06:21:11.281Z,99.90
2022-08-08T06:23:52.767Z,99.90
2022-08-08T06:26:43.198Z,99.90
2022-08-08T06:29:48.617Z,99.90
2022-08-08T06:32:17.198Z,99.90
2022-08-08T06:36:08.244Z,99.90
2022-08-08T06:38:37.129Z,99.90
2022-08-08T06:41:12.348Z,99.90
2022-08-08T06:43:56.867Z,99.90
2022-08-08T06:46:24.599Z,99.90
2022-08-08T06:48:58.261Z,99.90
2022-08-08T06:51:45.826Z,99.90
2022-08-08T06:54:13.537Z,99.90
2022-08-08T06:56:41.937Z,99.90
2022-08-08T06:59:14.169Z,99.50
2022-08-08T07:02:27.856Z,97.70
2022-08-08T07:05:11.867Z,95.30
2022-08-08T07:07:53.031Z,94.30
2022-08-08T07:10:25.457Z,94.30
2022-08-08T07:12:55.230Z,93.10
2022-08-08T07:16:03.959Z,91.80
2022-08-08T07:18:40.842Z,90.00
2022-08-08T07:21:18.439Z,87.00
2022-08-08T18:34:40.333Z,98.30
2022-08-08T18:37:10.175Z,77.30
2022-08-08T18:39:44.800Z,75.30
2022-08-08T18:42:16.462Z,75.70
2022-08-08T18:44:54.737Z,77.20
2022-08-08T18:47:26.398Z,79.00
2022-08-08T18:49:58.356Z,80.50
2022-08-08T18:52:29.662Z,82.20
2022-08-08T18:55:00.809Z,84.30
2022-08-08T18:57:42.038Z,85.70
2022-08-08T19:00:20.601Z,88.20
2022-08-08T19:02:55.411Z,90.50
2022-08-08T19:05:48.648Z,91.20
2022-08-08T19:08:24.732Z,91.80
2022-08-08T19:29:35.622Z,93.30
2022-08-08T19:32:12.755Z,94.60
2022-08-08T19:34:41.322Z,93.70
2022-08-08T19:37:16.363Z,94.00
2022-08-08T19:39:45.640Z,93.30
2022-08-08T19:42:13.563Z,93.30
2022-08-08T19:44:43.194Z,93.50
2022-08-08T19:47:14.356Z,93.80
2022-08-08T19:49:43.193Z,93.70
2022-08-08T19:52:13.368Z,93.80
2022-08-08T19:54:43.105Z,93.90
2022-08-08T19:57:11.261Z,94.50
2022-08-08T19:59:42.038Z,94.00
2022-08-08T20:02:10.634Z,94.30
2022-08-08T20:04:38.594Z,94.80
2022-08-08T20:08:29.786Z,94.20
2022-08-08T20:09:57.092Z,94.40
2022-08-08T20:12:32.270Z,94.60
2022-08-08T20:15:14.819Z,94.90
2022-08-08T20:17:46.829Z,95.40
2022-08-08T20:20:19.734Z,96.10
2022-08-08T20:22:53.840Z,95.80
2022-08-08T20:25:21.668Z,96.10
2022-08-08T20:27:50.541Z,96.40
2022-08-08T20:30:52.357Z,96.70
2022-08-08T20:33:18.738Z,97.50
2022-08-08T20:35:58.425Z,98.80
2022-08-08T20:38:32.575Z,98.10
2022-08-08T20:41:15.375Z,98.70
2022-08-08T20:43:49.341Z,98.60
2022-08-08T20:46:20.679Z,99.10
2022-08-08T20:48:51.389Z,99.60
2022-08-08T20:51:18.604Z,99.90
2022-08-08T20:53:59.966Z,99.90
2022-08-08T20:56:35.364Z,99.90
2022-08-08T20:59:06.138Z,99.90
2022-08-08T21:02:06.797Z,99.90
2022-08-08T21:04:20.919Z,99.90
2022-08-08T21:06:53.143Z,99.90
2022-08-08T21:09:21.794Z,99.90
2022-08-08T21:11:52.052Z,99.90
2022-08-08T21:14:30.351Z,99.90
2022-08-08T21:17:01.393Z,99.90
2022-08-08T21:19:44.572Z,99.90
2022-08-08T21:22:15.234Z,99.90
2022-08-08T21:24:53.504Z,99.90
2022-08-08T21:28:05.082Z,99.90
2022-08-08T21:30:18.735Z,99.90
2022-08-08T21:32:51.981Z,99.90
2022-08-08T21:36:16.156Z,99.90
2022-08-08T21:38:17.233Z,99.90
2022-08-08T21:40:56.257Z,99.90
2022-08-08T21:43:34.159Z,99.90
2022-08-08T21:48:08.148Z,99.90
2022-08-08T21:48:57.758Z,99.90
2022-08-08T21:54:18.217Z,99.90
2022-08-08T21:54:51.565Z,99.90
2022-08-08T21:57:08.203Z,99.90
2022-08-08T22:00:01.751Z,99.90
2022-08-08T22:02:24.259Z,99.90
2022-08-08T22:04:56.128Z,99.90
2022-08-08T22:07:40.106Z,99.90
2022-08-08T22:10:18.681Z,99.90
2022-08-08T22:13:17.356Z,99.90
2022-08-08T22:15:59.025Z,99.90
2022-08-08T22:18:34.457Z,99.90
2022-08-08T22:21:14.069Z,99.90
2022-08-08T22:23:50.445Z,99.90
2022-08-08T22:26:29.599Z,99.90
2022-08-08T22:29:13.485Z,99.90
2022-08-08T22:31:58.939Z,99.90
2022-08-08T22:34:39.527Z,99.90
2022-08-08T22:37:27.513Z,99.90
2022-08-08T22:40:00.918Z,99.90
2022-08-08T22:42:31.708Z,99.90
2022-08-08T22:45:05.208Z,99.90
2022-08-08T22:47:38.437Z,99.90
2022-08-08T22:50:26.535Z,99.90
2022-08-08T22:54:15.655Z,99.90
2022-08-08T22:55:58.589Z,99.90
2022-08-08T22:58:31.189Z,99.90
2022-08-08T23:01:02.214Z,99.90
2022-08-08T23:03:54.709Z,99.90
2022-08-08T23:06:24.099Z,99.90
2022-08-08T23:08:54.804Z,99.90
2022-08-08T23:11:31.058Z,99.90
2022-08-08T23:14:12.437Z,99.90
2022-08-08T23:16:43.560Z,99.90
2022-08-08T23:19:11.680Z,99.90
2022-08-08T23:21:39.077Z,99.90
2022-08-08T23:24:06.946Z,99.90
2022-08-08T23:26:34.392Z,99.90
2022-08-08T23:29:02.352Z,99.90
2022-08-08T23:31:29.223Z,99.90
2022-08-08T23:34:16.377Z,99.90
2022-08-08T23:36:44.923Z,99.90
2022-08-08T23:39:13.233Z,99.90
2022-08-08T23:41:45.804Z,99.90
2022-08-08T23:44:14.634Z,99.90
2022-08-08T23:48:59.772Z,99.90
2022-08-08T23:49:29.275Z,99.90
2022-08-08T23:52:05.544Z,99.90
2022-08-08T23:54:42.233Z,99.90
2022-08-08T23:57:26.431Z,99.90
